sensor_id;sensor_type;location;lat;lon;timestamp;P1;durP1;ratioP1;P2;durP2;ratioP2
16075;SDS011;8142;48.242;11.644;2023-09-30T00:01:00;20.40;;;9.00;;
16075;SDS011;8142;48.242;11.644;2023-09-30T00:03:27;22.50;;;8.60;;
16075;SDS011;8142;48.242;11.644;2023-09-30T00:05:53;21.53;;;9.47;;
16075;SDS011;8142;48.242;11.644;2023-09-30T00:08:19;22.70;;;9.07;;
16075;SDS011;8142;48.242;11.644;2023-09-30T00:10:45;19.47;;;8.83;;
16075;SDS011;8142;48.242;11.644;2023-09-30T00:13:12;22.23;;;9.50;;
16075;SDS011;8142;48.242;11.644;2023-09-30T00:15:38;21.50;;;9.10;;
16075;SDS011;8142;48.242;11.644;2023-09-30T00:18:04;22.13;;;9.07;;
16075;SDS011;8142;48.242;11.644;2023-09-30T00:20:30;19.60;;;8.83;;
16075;SDS011;8142;48.242;11.644;2023-09-30T00:22:57;20.23;;;8.73;;
16075;SDS011;8142;48.242;11.644;2023-09-30T00:25:23;22.07;;;8.90;;
16075;SDS011;8142;48.242;11.644;2023-09-30T00:27:49;20.77;;;8.93;;
16075;SDS011;8142;48.242;11.644;2023-09-30T00:30:15;20.63;;;8.40;;
16075;SDS011;8142;48.242;11.644;2023-09-30T00:32:41;22.63;;;9.27;;
16075;SDS011;8142;48.242;11.644;2023-09-30T00:35:07;18.67;;;8.53;;
16075;SDS011;8142;48.242;11.644;2023-09-30T00:37:40;19.83;;;8.53;;
16075;SDS011;8142;48.242;11.644;2023-09-30T00:40:06;19.90;;;8.73;;
16075;SDS011;8142;48.242;11.644;2023-09-30T00:42:37;20.80;;;8.70;;
16075;SDS011;8142;48.242;11.644;2023-09-30T00:45:04;21.93;;;8.60;;
16075;SDS011;8142;48.242;11.644;2023-09-30T00:47:30;20.23;;;8.67;;
16075;SDS011;8142;48.242;11.644;2023-09-30T00:49:56;22.30;;;8.93;;
16075;SDS011;8142;48.242;11.644;2023-09-30T00:52:22;20.47;;;8.90;;
16075;SDS011;8142;48.242;11.644;2023-09-30T00:54:48;23.30;;;9.50;;
16075;SDS011;8142;48.242;11.644;2023-09-30T00:57:17;21.13;;;9.13;;
16075;SDS011;8142;48.242;11.644;2023-09-30T00:59:45;21.47;;;9.57;;
16075;SDS011;8142;48.242;11.644;2023-09-30T01:02:13;24.37;;;10.37;;
16075;SDS011;8142;48.242;11.644;2023-09-30T01:04:39;24.33;;;10.27;;
16075;SDS011;8142;48.242;11.644;2023-09-30T01:07:06;23.73;;;10.00;;
16075;SDS011;8142;48.242;11.644;2023-09-30T01:09:31;23.40;;;10.30;;
16075;SDS011;8142;48.242;11.644;2023-09-30T01:11:59;24.83;;;10.47;;
16075;SDS011;8142;48.242;11.644;2023-09-30T01:14:28;22.33;;;10.07;;
16075;SDS011;8142;48.242;11.644;2023-09-30T01:17:03;24.37;;;10.20;;
16075;SDS011;8142;48.242;11.644;2023-09-30T01:19:29;24.30;;;10.33;;
16075;SDS011;8142;48.242;11.644;2023-09-30T01:21:58;22.53;;;9.53;;
16075;SDS011;8142;48.242;11.644;2023-09-30T01:24:25;24.10;;;10.30;;
16075;SDS011;8142;48.242;11.644;2023-09-30T01:26:51;23.17;;;10.30;;
16075;SDS011;8142;48.242;11.644;2023-09-30T01:29:18;24.70;;;9.43;;
16075;SDS011;8142;48.242;11.644;2023-09-30T01:31:44;24.73;;;10.27;;
16075;SDS011;8142;48.242;11.644;2023-09-30T01:34:13;26.13;;;10.50;;
16075;SDS011;8142;48.242;11.644;2023-09-30T01:36:40;23.70;;;10.17;;
16075;SDS011;8142;48.242;11.644;2023-09-30T01:39:10;25.77;;;9.97;;
16075;SDS011;8142;48.242;11.644;2023-09-30T01:41:39;25.70;;;10.37;;
16075;SDS011;8142;48.242;11.644;2023-09-30T01:44:06;25.07;;;10.67;;
16075;SDS011;8142;48.242;11.644;2023-09-30T01:46:32;23.17;;;10.17;;
16075;SDS011;8142;48.242;11.644;2023-09-30T01:48:58;24.73;;;10.53;;
16075;SDS011;8142;48.242;11.644;2023-09-30T01:51:24;25.87;;;9.90;;
16075;SDS011;8142;48.242;11.644;2023-09-30T01:53:50;23.73;;;9.70;;
16075;SDS011;8142;48.242;11.644;2023-09-30T01:56:17;22.80;;;10.07;;
16075;SDS011;8142;48.242;11.644;2023-09-30T01:58:43;25.87;;;10.43;;
16075;SDS011;8142;48.242;11.644;2023-09-30T02:01:09;22.30;;;9.80;;
16075;SDS011;8142;48.242;11.644;2023-09-30T02:03:35;23.97;;;10.40;;
16075;SDS011;8142;48.242;11.644;2023-09-30T02:06:01;27.13;;;10.70;;
16075;SDS011;8142;48.242;11.644;2023-09-30T02:08:27;25.17;;;10.17;;
16075;SDS011;8142;48.242;11.644;2023-09-30T02:10:53;22.63;;;10.23;;
16075;SDS011;8142;48.242;11.644;2023-09-30T02:13:19;24.97;;;9.73;;
16075;SDS011;8142;48.242;11.644;2023-09-30T02:15:45;23.83;;;10.80;;
16075;SDS011;8142;48.242;11.644;2023-09-30T02:18:11;21.77;;;9.83;;
16075;SDS011;8142;48.242;11.644;2023-09-30T02:20:37;23.33;;;10.10;;
16075;SDS011;8142;48.242;11.644;2023-09-30T02:23:09;24.73;;;10.50;;
16075;SDS011;8142;48.242;11.644;2023-09-30T02:25:41;24.00;;;11.03;;
16075;SDS011;8142;48.242;11.644;2023-09-30T02:28:08;27.23;;;10.40;;
16075;SDS011;8142;48.242;11.644;2023-09-30T02:30:34;25.13;;;10.57;;
16075;SDS011;8142;48.242;11.644;2023-09-30T02:33:01;25.20;;;10.90;;
16075;SDS011;8142;48.242;11.644;2023-09-30T02:35:27;25.47;;;11.10;;
16075;SDS011;8142;48.242;11.644;2023-09-30T02:37:54;24.27;;;10.13;;
16075;SDS011;8142;48.242;11.644;2023-09-30T02:40:20;26.37;;;10.43;;
16075;SDS011;8142;48.242;11.644;2023-09-30T02:42:46;23.80;;;10.77;;
16075;SDS011;8142;48.242;11.644;2023-09-30T02:45:15;25.97;;;11.47;;
16075;SDS011;8142;48.242;11.644;2023-09-30T02:47:42;26.33;;;10.80;;
16075;SDS011;8142;48.242;11.644;2023-09-30T02:50:09;27.87;;;11.57;;
16075;SDS011;8142;48.242;11.644;2023-09-30T02:52:39;26.47;;;11.40;;
16075;SDS011;8142;48.242;11.644;2023-09-30T02:55:08;26.53;;;11.27;;
16075;SDS011;8142;48.242;11.644;2023-09-30T02:57:35;26.30;;;10.90;;
16075;SDS011;8142;48.242;11.644;2023-09-30T03:00:04;27.97;;;11.23;;
16075;SDS011;8142;48.242;11.644;2023-09-30T03:02:46;25.77;;;11.13;;
16075;SDS011;8142;48.242;11.644;2023-09-30T03:05:11;25.07;;;11.23;;
16075;SDS011;8142;48.242;11.644;2023-09-30T03:07:38;27.07;;;11.53;;
16075;SDS011;8142;48.242;11.644;2023-09-30T03:10:06;29.10;;;12.17;;
16075;SDS011;8142;48.242;11.644;2023-09-30T03:12:34;24.47;;;10.70;;
16075;SDS011;8142;48.242;11.644;2023-09-30T03:15:00;28.50;;;11.43;;
16075;SDS011;8142;48.242;11.644;2023-09-30T03:17:29;26.10;;;11.47;;
16075;SDS011;8142;48.242;11.644;2023-09-30T03:19:58;25.50;;;11.43;;
16075;SDS011;8142;48.242;11.644;2023-09-30T03:22:26;28.77;;;11.03;;
16075;SDS011;8142;48.242;11.644;2023-09-30T03:24:52;25.97;;;11.03;;
16075;SDS011;8142;48.242;11.644;2023-09-30T03:27:22;24.97;;;11.40;;
16075;SDS011;8142;48.242;11.644;2023-09-30T03:29:48;26.10;;;11.20;;
16075;SDS011;8142;48.242;11.644;2023-09-30T03:32:14;26.30;;;11.17;;
16075;SDS011;8142;48.242;11.644;2023-09-30T03:34:40;26.23;;;10.93;;
16075;SDS011;8142;48.242;11.644;2023-09-30T03:37:10;28.17;;;12.00;;
16075;SDS011;8142;48.242;11.644;2023-09-30T03:39:35;25.00;;;11.20;;
16075;SDS011;8142;48.242;11.644;2023-09-30T03:42:01;26.90;;;11.20;;
16075;SDS011;8142;48.242;11.644;2023-09-30T03:44:28;23.27;;;10.83;;
16075;SDS011;8142;48.242;11.644;2023-09-30T03:46:54;28.87;;;12.00;;
16075;SDS011;8142;48.242;11.644;2023-09-30T03:49:20;27.50;;;11.27;;
16075;SDS011;8142;48.242;11.644;2023-09-30T03:51:46;27.13;;;12.03;;
16075;SDS011;8142;48.242;11.644;2023-09-30T03:54:12;28.20;;;11.70;;
16075;SDS011;8142;48.242;11.644;2023-09-30T03:56:38;27.53;;;11.30;;
16075;SDS011;8142;48.242;11.644;2023-09-30T03:59:04;28.77;;;11.73;;
16075;SDS011;8142;48.242;11.644;2023-09-30T04:01:30;26.77;;;12.10;;
16075;SDS011;8142;48.242;11.644;2023-09-30T04:03:56;24.23;;;10.73;;
16075;SDS011;8142;48.242;11.644;2023-09-30T04:06:22;21.30;;;10.00;;
16075;SDS011;8142;48.242;11.644;2023-09-30T04:08:48;24.27;;;10.17;;
16075;SDS011;8142;48.242;11.644;2023-09-30T04:11:14;25.07;;;11.07;;
16075;SDS011;8142;48.242;11.644;2023-09-30T04:13:44;25.30;;;10.13;;
16075;SDS011;8142;48.242;11.644;2023-09-30T04:16:10;22.13;;;9.70;;
16075;SDS011;8142;48.242;11.644;2023-09-30T04:18:37;21.60;;;10.33;;
16075;SDS011;8142;48.242;11.644;2023-09-30T04:21:05;21.87;;;9.90;;
16075;SDS011;8142;48.242;11.644;2023-09-30T04:23:32;22.83;;;9.87;;
16075;SDS011;8142;48.242;11.644;2023-09-30T04:26:02;19.77;;;9.10;;
16075;SDS011;8142;48.242;11.644;2023-09-30T04:28:28;21.97;;;9.67;;
16075;SDS011;8142;48.242;11.644;2023-09-30T04:30:54;21.43;;;9.07;;
16075;SDS011;8142;48.242;11.644;2023-09-30T04:33:20;23.80;;;10.37;;
16075;SDS011;8142;48.242;11.644;2023-09-30T04:35:47;24.20;;;10.13;;
16075;SDS011;8142;48.242;11.644;2023-09-30T04:38:13;24.30;;;10.03;;
16075;SDS011;8142;48.242;11.644;2023-09-30T04:40:39;24.17;;;10.90;;
16075;SDS011;8142;48.242;11.644;2023-09-30T04:43:04;21.17;;;9.43;;
16075;SDS011;8142;48.242;11.644;2023-09-30T04:45:30;22.43;;;9.50;;
16075;SDS011;8142;48.242;11.644;2023-09-30T04:47:56;24.40;;;10.57;;
16075;SDS011;8142;48.242;11.644;2023-09-30T04:50:22;20.83;;;9.60;;
16075;SDS011;8142;48.242;11.644;2023-09-30T04:52:50;26.27;;;10.30;;
16075;SDS011;8142;48.242;11.644;2023-09-30T04:55:19;24.80;;;10.07;;
16075;SDS011;8142;48.242;11.644;2023-09-30T04:57:45;21.37;;;9.53;;
16075;SDS011;8142;48.242;11.644;2023-09-30T05:00:16;23.30;;;10.30;;
16075;SDS011;8142;48.242;11.644;2023-09-30T05:02:44;24.27;;;10.43;;
16075;SDS011;8142;48.242;11.644;2023-09-30T05:05:10;23.70;;;10.00;;
16075;SDS011;8142;48.242;11.644;2023-09-30T05:07:37;23.13;;;10.23;;
16075;SDS011;8142;48.242;11.644;2023-09-30T05:10:03;23.57;;;9.73;;
16075;SDS011;8142;48.242;11.644;2023-09-30T05:12:38;24.47;;;10.40;;
16075;SDS011;8142;48.242;11.644;2023-09-30T05:15:05;23.87;;;10.27;;
16075;SDS011;8142;48.242;11.644;2023-09-30T05:17:31;24.53;;;10.47;;
16075;SDS011;8142;48.242;11.644;2023-09-30T05:19:57;24.17;;;10.10;;
16075;SDS011;8142;48.242;11.644;2023-09-30T05:22:24;22.07;;;10.40;;
16075;SDS011;8142;48.242;11.644;2023-09-30T05:24:50;27.80;;;10.80;;
16075;SDS011;8142;48.242;11.644;2023-09-30T05:27:17;25.27;;;10.97;;
16075;SDS011;8142;48.242;11.644;2023-09-30T05:29:43;25.90;;;10.63;;
16075;SDS011;8142;48.242;11.644;2023-09-30T05:32:10;27.43;;;10.47;;
16075;SDS011;8142;48.242;11.644;2023-09-30T05:34:36;24.50;;;10.57;;
16075;SDS011;8142;48.242;11.644;2023-09-30T05:37:04;26.67;;;10.70;;
16075;SDS011;8142;48.242;11.644;2023-09-30T05:39:30;26.83;;;10.70;;
16075;SDS011;8142;48.242;11.644;2023-09-30T05:41:57;21.27;;;9.80;;
16075;SDS011;8142;48.242;11.644;2023-09-30T05:44:23;28.63;;;11.50;;
16075;SDS011;8142;48.242;11.644;2023-09-30T05:46:51;25.70;;;11.20;;
16075;SDS011;8142;48.242;11.644;2023-09-30T05:49:17;23.67;;;9.83;;
16075;SDS011;8142;48.242;11.644;2023-09-30T05:51:44;23.63;;;9.93;;
16075;SDS011;8142;48.242;11.644;2023-09-30T05:54:11;24.40;;;10.40;;
16075;SDS011;8142;48.242;11.644;2023-09-30T05:56:38;25.23;;;10.60;;
16075;SDS011;8142;48.242;11.644;2023-09-30T05:59:07;24.80;;;10.80;;
16075;SDS011;8142;48.242;11.644;2023-09-30T06:01:34;26.13;;;10.37;;
16075;SDS011;8142;48.242;11.644;2023-09-30T06:04:01;23.47;;;9.70;;
16075;SDS011;8142;48.242;11.644;2023-09-30T06:06:27;25.30;;;10.07;;
16075;SDS011;8142;48.242;11.644;2023-09-30T06:08:56;20.37;;;9.70;;
16075;SDS011;8142;48.242;11.644;2023-09-30T06:11:23;22.10;;;10.13;;
16075;SDS011;8142;48.242;11.644;2023-09-30T06:13:50;21.90;;;10.13;;
16075;SDS011;8142;48.242;11.644;2023-09-30T06:16:18;21.63;;;9.93;;
16075;SDS011;8142;48.242;11.644;2023-09-30T06:18:44;20.93;;;9.43;;
16075;SDS011;8142;48.242;11.644;2023-09-30T06:21:11;21.30;;;8.90;;
16075;SDS011;8142;48.242;11.644;2023-09-30T06:23:39;23.87;;;9.17;;
16075;SDS011;8142;48.242;11.644;2023-09-30T06:26:05;22.40;;;8.80;;
16075;SDS011;8142;48.242;11.644;2023-09-30T06:28:32;19.87;;;8.47;;
16075;SDS011;8142;48.242;11.644;2023-09-30T06:30:59;20.60;;;8.20;;
16075;SDS011;8142;48.242;11.644;2023-09-30T06:33:25;17.23;;;7.87;;
16075;SDS011;8142;48.242;11.644;2023-09-30T06:35:54;22.33;;;9.27;;
16075;SDS011;8142;48.242;11.644;2023-09-30T06:38:20;18.53;;;7.87;;
16075;SDS011;8142;48.242;11.644;2023-09-30T06:40:47;18.97;;;8.07;;
16075;SDS011;8142;48.242;11.644;2023-09-30T06:43:14;20.40;;;7.87;;
16075;SDS011;8142;48.242;11.644;2023-09-30T06:45:43;17.70;;;7.97;;
16075;SDS011;8142;48.242;11.644;2023-09-30T06:48:10;19.77;;;8.37;;
16075;SDS011;8142;48.242;11.644;2023-09-30T06:50:43;21.00;;;8.50;;
16075;SDS011;8142;48.242;11.644;2023-09-30T06:53:10;18.40;;;7.63;;
16075;SDS011;8142;48.242;11.644;2023-09-30T06:55:39;18.27;;;8.13;;
16075;SDS011;8142;48.242;11.644;2023-09-30T06:58:08;18.07;;;8.23;;
16075;SDS011;8142;48.242;11.644;2023-09-30T07:00:38;18.17;;;8.30;;
16075;SDS011;8142;48.242;11.644;2023-09-30T07:03:06;17.47;;;7.50;;
16075;SDS011;8142;48.242;11.644;2023-09-30T07:05:35;18.47;;;8.13;;
16075;SDS011;8142;48.242;11.644;2023-09-30T07:08:01;14.73;;;6.70;;
16075;SDS011;8142;48.242;11.644;2023-09-30T07:10:28;15.97;;;6.37;;
16075;SDS011;8142;48.242;11.644;2023-09-30T07:12:55;11.90;;;5.47;;
16075;SDS011;8142;48.242;11.644;2023-09-30T07:15:21;13.50;;;6.30;;
16075;SDS011;8142;48.242;11.644;2023-09-30T07:17:47;13.33;;;5.83;;
16075;SDS011;8142;48.242;11.644;2023-09-30T07:20:13;8.80;;;4.57;;
16075;SDS011;8142;48.242;11.644;2023-09-30T07:22:39;8.27;;;4.10;;
16075;SDS011;8142;48.242;11.644;2023-09-30T07:25:06;8.30;;;4.00;;
16075;SDS011;8142;48.242;11.644;2023-09-30T07:27:33;8.70;;;4.47;;
16075;SDS011;8142;48.242;11.644;2023-09-30T07:29:59;9.10;;;4.33;;
16075;SDS011;8142;48.242;11.644;2023-09-30T07:32:25;9.53;;;4.30;;
16075;SDS011;8142;48.242;11.644;2023-09-30T07:34:51;9.53;;;4.63;;
16075;SDS011;8142;48.242;11.644;2023-09-30T07:37:17;10.57;;;4.47;;
16075;SDS011;8142;48.242;11.644;2023-09-30T07:39:44;10.90;;;5.00;;
16075;SDS011;8142;48.242;11.644;2023-09-30T07:42:10;10.17;;;4.90;;
16075;SDS011;8142;48.242;11.644;2023-09-30T07:44:36;6.83;;;4.13;;
16075;SDS011;8142;48.242;11.644;2023-09-30T07:47:03;10.73;;;4.90;;
16075;SDS011;8142;48.242;11.644;2023-09-30T07:49:31;13.83;;;5.63;;
16075;SDS011;8142;48.242;11.644;2023-09-30T07:51:58;11.40;;;5.17;;
16075;SDS011;8142;48.242;11.644;2023-09-30T07:54:24;10.80;;;5.03;;
16075;SDS011;8142;48.242;11.644;2023-09-30T07:56:49;10.13;;;5.20;;
16075;SDS011;8142;48.242;11.644;2023-09-30T07:59:15;8.53;;;4.73;;
16075;SDS011;8142;48.242;11.644;2023-09-30T08:01:41;10.33;;;4.90;;
16075;SDS011;8142;48.242;11.644;2023-09-30T08:04:07;9.57;;;4.63;;
16075;SDS011;8142;48.242;11.644;2023-09-30T08:06:33;9.57;;;4.50;;
16075;SDS011;8142;48.242;11.644;2023-09-30T08:08:59;9.83;;;4.73;;
16075;SDS011;8142;48.242;11.644;2023-09-30T08:11:25;9.90;;;4.50;;
16075;SDS011;8142;48.242;11.644;2023-09-30T08:13:53;10.53;;;4.33;;
16075;SDS011;8142;48.242;11.644;2023-09-30T08:16:20;8.93;;;4.60;;
16075;SDS011;8142;48.242;11.644;2023-09-30T08:18:45;8.93;;;4.47;;
16075;SDS011;8142;48.242;11.644;2023-09-30T08:21:11;9.53;;;4.33;;
16075;SDS011;8142;48.242;11.644;2023-09-30T08:23:37;9.20;;;4.63;;
16075;SDS011;8142;48.242;11.644;2023-09-30T08:26:04;9.47;;;4.40;;
16075;SDS011;8142;48.242;11.644;2023-09-30T08:28:31;11.00;;;4.80;;
16075;SDS011;8142;48.242;11.644;2023-09-30T08:31:03;8.87;;;5.00;;
16075;SDS011;8142;48.242;11.644;2023-09-30T08:33:31;11.07;;;5.10;;
16075;SDS011;8142;48.242;11.644;2023-09-30T08:36:03;11.53;;;4.33;;
16075;SDS011;8142;48.242;11.644;2023-09-30T08:38:32;10.70;;;4.70;;
16075;SDS011;8142;48.242;11.644;2023-09-30T08:41:02;9.93;;;4.90;;
16075;SDS011;8142;48.242;11.644;2023-09-30T08:43:28;8.07;;;4.03;;
16075;SDS011;8142;48.242;11.644;2023-09-30T08:46:00;8.17;;;3.80;;
16075;SDS011;8142;48.242;11.644;2023-09-30T08:48:28;9.83;;;4.70;;
16075;SDS011;8142;48.242;11.644;2023-09-30T08:50:55;9.70;;;4.13;;
16075;SDS011;8142;48.242;11.644;2023-09-30T08:53:21;10.20;;;4.60;;
16075;SDS011;8142;48.242;11.644;2023-09-30T08:55:48;9.60;;;4.40;;
16075;SDS011;8142;48.242;11.644;2023-09-30T08:58:19;9.63;;;4.83;;
16075;SDS011;8142;48.242;11.644;2023-09-30T09:00:46;9.37;;;4.47;;
16075;SDS011;8142;48.242;11.644;2023-09-30T09:03:13;8.07;;;4.23;;
16075;SDS011;8142;48.242;11.644;2023-09-30T09:05:39;8.63;;;4.37;;
16075;SDS011;8142;48.242;11.644;2023-09-30T09:08:06;8.90;;;4.43;;
16075;SDS011;8142;48.242;11.644;2023-09-30T09:10:31;7.60;;;4.00;;
16075;SDS011;8142;48.242;11.644;2023-09-30T09:12:58;9.07;;;4.13;;
16075;SDS011;8142;48.242;11.644;2023-09-30T09:15:25;9.67;;;3.80;;
16075;SDS011;8142;48.242;11.644;2023-09-30T09:17:52;6.53;;;3.60;;
16075;SDS011;8142;48.242;11.644;2023-09-30T09:20:19;6.37;;;3.30;;
16075;SDS011;8142;48.242;11.644;2023-09-30T09:22:47;7.70;;;3.93;;
16075;SDS011;8142;48.242;11.644;2023-09-30T09:25:16;6.13;;;3.33;;
16075;SDS011;8142;48.242;11.644;2023-09-30T09:27:42;8.43;;;3.80;;
16075;SDS011;8142;48.242;11.644;2023-09-30T09:30:18;9.13;;;4.00;;
16075;SDS011;8142;48.242;11.644;2023-09-30T09:33:05;7.57;;;3.60;;
16075;SDS011;8142;48.242;11.644;2023-09-30T09:35:32;7.23;;;3.90;;
16075;SDS011;8142;48.242;11.644;2023-09-30T09:38:03;6.47;;;3.50;;
16075;SDS011;8142;48.242;11.644;2023-09-30T09:40:30;9.47;;;3.80;;
16075;SDS011;8142;48.242;11.644;2023-09-30T09:42:58;9.40;;;3.50;;
16075;SDS011;8142;48.242;11.644;2023-09-30T09:45:28;6.57;;;3.20;;
16075;SDS011;8142;48.242;11.644;2023-09-30T09:47:57;7.20;;;3.57;;
16075;SDS011;8142;48.242;11.644;2023-09-30T09:50:23;7.23;;;3.27;;
16075;SDS011;8142;48.242;11.644;2023-09-30T09:52:53;6.37;;;3.00;;
16075;SDS011;8142;48.242;11.644;2023-09-30T09:55:21;6.87;;;3.20;;
16075;SDS011;8142;48.242;11.644;2023-09-30T09:57:48;5.47;;;3.10;;
16075;SDS011;8142;48.242;11.644;2023-09-30T10:00:16;5.73;;;2.90;;
16075;SDS011;8142;48.242;11.644;2023-09-30T10:02:51;6.17;;;3.43;;
16075;SDS011;8142;48.242;11.644;2023-09-30T10:05:18;8.20;;;3.17;;
16075;SDS011;8142;48.242;11.644;2023-09-30T10:07:47;5.73;;;3.20;;
16075;SDS011;8142;48.242;11.644;2023-09-30T10:10:16;5.23;;;3.00;;
16075;SDS011;8142;48.242;11.644;2023-09-30T10:12:45;5.57;;;3.47;;
16075;SDS011;8142;48.242;11.644;2023-09-30T10:18:05;5.50;;;3.03;;
16075;SDS011;8142;48.242;11.644;2023-09-30T10:20:36;5.53;;;3.10;;
16075;SDS011;8142;48.242;11.644;2023-09-30T10:25:44;5.70;;;2.80;;
16075;SDS011;8142;48.242;11.644;2023-09-30T10:31:08;5.87;;;2.90;;
16075;SDS011;8142;48.242;11.644;2023-09-30T10:36:30;4.97;;;2.77;;
16075;SDS011;8142;48.242;11.644;2023-09-30T10:38:57;3.93;;;2.60;;
16075;SDS011;8142;48.242;11.644;2023-09-30T10:46:56;6.37;;;3.27;;
16075;SDS011;8142;48.242;11.644;2023-09-30T10:49:46;7.53;;;3.30;;
16075;SDS011;8142;48.242;11.644;2023-09-30T10:52:12;5.57;;;2.97;;
16075;SDS011;8142;48.242;11.644;2023-09-30T10:54:48;5.03;;;3.13;;
16075;SDS011;8142;48.242;11.644;2023-09-30T10:57:16;5.90;;;3.00;;
16075;SDS011;8142;48.242;11.644;2023-09-30T11:00:12;7.57;;;3.43;;
16075;SDS011;8142;48.242;11.644;2023-09-30T11:02:48;8.53;;;3.20;;
16075;SDS011;8142;48.242;11.644;2023-09-30T11:05:15;5.80;;;3.03;;
16075;SDS011;8142;48.242;11.644;2023-09-30T11:07:42;6.27;;;3.17;;
16075;SDS011;8142;48.242;11.644;2023-09-30T11:10:14;5.43;;;3.10;;
16075;SDS011;8142;48.242;11.644;2023-09-30T11:12:53;6.80;;;3.30;;
16075;SDS011;8142;48.242;11.644;2023-09-30T11:15:20;5.23;;;3.10;;
16075;SDS011;8142;48.242;11.644;2023-09-30T11:17:46;7.47;;;3.30;;
16075;SDS011;8142;48.242;11.644;2023-09-30T11:20:12;6.27;;;3.20;;
16075;SDS011;8142;48.242;11.644;2023-09-30T11:22:38;5.67;;;3.20;;
16075;SDS011;8142;48.242;11.644;2023-09-30T11:25:04;5.73;;;3.33;;
16075;SDS011;8142;48.242;11.644;2023-09-30T11:27:30;7.83;;;3.77;;
16075;SDS011;8142;48.242;11.644;2023-09-30T11:29:56;9.63;;;3.77;;
16075;SDS011;8142;48.242;11.644;2023-09-30T11:32:27;7.43;;;3.60;;
16075;SDS011;8142;48.242;11.644;2023-09-30T11:34:54;9.43;;;3.77;;
16075;SDS011;8142;48.242;11.644;2023-09-30T11:37:20;9.10;;;3.97;;
16075;SDS011;8142;48.242;11.644;2023-09-30T11:39:47;8.80;;;4.07;;
16075;SDS011;8142;48.242;11.644;2023-09-30T11:42:16;8.33;;;4.23;;
16075;SDS011;8142;48.242;11.644;2023-09-30T11:44:46;7.00;;;3.80;;
16075;SDS011;8142;48.242;11.644;2023-09-30T11:47:13;10.20;;;4.40;;
16075;SDS011;8142;48.242;11.644;2023-09-30T11:49:40;7.27;;;3.97;;
16075;SDS011;8142;48.242;11.644;2023-09-30T11:52:11;8.13;;;4.10;;
16075;SDS011;8142;48.242;11.644;2023-09-30T11:54:42;9.57;;;4.30;;
16075;SDS011;8142;48.242;11.644;2023-09-30T11:57:10;10.83;;;4.80;;
16075;SDS011;8142;48.242;11.644;2023-09-30T11:59:40;8.90;;;3.97;;
16075;SDS011;8142;48.242;11.644;2023-09-30T12:02:07;10.13;;;4.90;;
16075;SDS011;8142;48.242;11.644;2023-09-30T12:04:36;9.80;;;4.57;;
16075;SDS011;8142;48.242;11.644;2023-09-30T12:07:03;10.70;;;4.80;;
16075;SDS011;8142;48.242;11.644;2023-09-30T12:09:29;12.30;;;5.17;;
16075;SDS011;8142;48.242;11.644;2023-09-30T12:11:56;10.20;;;5.03;;
16075;SDS011;8142;48.242;11.644;2023-09-30T12:14:23;8.87;;;4.50;;
16075;SDS011;8142;48.242;11.644;2023-09-30T12:16:50;11.93;;;5.20;;
16075;SDS011;8142;48.242;11.644;2023-09-30T12:19:19;10.33;;;5.40;;
16075;SDS011;8142;48.242;11.644;2023-09-30T12:21:45;9.90;;;5.20;;
16075;SDS011;8142;48.242;11.644;2023-09-30T12:24:13;13.07;;;5.20;;
16075;SDS011;8142;48.242;11.644;2023-09-30T12:26:45;11.43;;;5.53;;
16075;SDS011;8142;48.242;11.644;2023-09-30T12:29:17;10.80;;;5.83;;
16075;SDS011;8142;48.242;11.644;2023-09-30T12:31:45;11.20;;;5.33;;
16075;SDS011;8142;48.242;11.644;2023-09-30T12:34:13;11.27;;;5.37;;
16075;SDS011;8142;48.242;11.644;2023-09-30T12:36:39;11.10;;;5.80;;
16075;SDS011;8142;48.242;11.644;2023-09-30T12:39:06;11.60;;;5.60;;
16075;SDS011;8142;48.242;11.644;2023-09-30T12:41:36;11.83;;;5.63;;
16075;SDS011;8142;48.242;11.644;2023-09-30T12:44:06;11.47;;;5.57;;
16075;SDS011;8142;48.242;11.644;2023-09-30T12:46:33;12.13;;;5.53;;
16075;SDS011;8142;48.242;11.644;2023-09-30T12:49:03;14.20;;;6.03;;
16075;SDS011;8142;48.242;11.644;2023-09-30T12:51:30;12.17;;;5.43;;
16075;SDS011;8142;48.242;11.644;2023-09-30T12:53:56;13.43;;;6.20;;
16075;SDS011;8142;48.242;11.644;2023-09-30T12:56:23;12.63;;;5.73;;
16075;SDS011;8142;48.242;11.644;2023-09-30T12:58:49;12.47;;;5.80;;
16075;SDS011;8142;48.242;11.644;2023-09-30T13:01:15;11.43;;;6.17;;
16075;SDS011;8142;48.242;11.644;2023-09-30T13:03:46;14.10;;;6.13;;
16075;SDS011;8142;48.242;11.644;2023-09-30T13:06:12;13.27;;;5.97;;
16075;SDS011;8142;48.242;11.644;2023-09-30T13:08:39;13.70;;;6.03;;
16075;SDS011;8142;48.242;11.644;2023-09-30T13:11:05;13.83;;;6.73;;
16075;SDS011;8142;48.242;11.644;2023-09-30T13:13:32;12.93;;;6.10;;
16075;SDS011;8142;48.242;11.644;2023-09-30T13:15:59;13.53;;;6.20;;
16075;SDS011;8142;48.242;11.644;2023-09-30T13:18:25;13.33;;;6.07;;
16075;SDS011;8142;48.242;11.644;2023-09-30T13:20:51;10.97;;;5.33;;
16075;SDS011;8142;48.242;11.644;2023-09-30T13:23:20;12.00;;;6.27;;
16075;SDS011;8142;48.242;11.644;2023-09-30T13:25:46;13.53;;;6.17;;
16075;SDS011;8142;48.242;11.644;2023-09-30T13:28:12;10.73;;;5.73;;
16075;SDS011;8142;48.242;11.644;2023-09-30T13:30:39;12.93;;;6.27;;
16075;SDS011;8142;48.242;11.644;2023-09-30T13:33:05;13.60;;;6.57;;
16075;SDS011;8142;48.242;11.644;2023-09-30T13:35:31;13.27;;;6.17;;
16075;SDS011;8142;48.242;11.644;2023-09-30T13:37:57;14.07;;;6.40;;
16075;SDS011;8142;48.242;11.644;2023-09-30T13:40:23;14.07;;;6.47;;
16075;SDS011;8142;48.242;11.644;2023-09-30T13:42:49;13.83;;;6.30;;
16075;SDS011;8142;48.242;11.644;2023-09-30T13:45:15;14.47;;;6.90;;
16075;SDS011;8142;48.242;11.644;2023-09-30T13:47:44;14.10;;;6.80;;
16075;SDS011;8142;48.242;11.644;2023-09-30T13:50:10;15.43;;;6.80;;
16075;SDS011;8142;48.242;11.644;2023-09-30T13:52:37;12.07;;;5.93;;
16075;SDS011;8142;48.242;11.644;2023-09-30T13:55:04;13.87;;;6.43;;
16075;SDS011;8142;48.242;11.644;2023-09-30T13:57:30;14.63;;;6.67;;
16075;SDS011;8142;48.242;11.644;2023-09-30T13:59:56;12.87;;;6.47;;
16075;SDS011;8142;48.242;11.644;2023-09-30T14:02:22;15.47;;;6.90;;
16075;SDS011;8142;48.242;11.644;2023-09-30T14:04:48;13.47;;;6.43;;
16075;SDS011;8142;48.242;11.644;2023-09-30T14:07:14;16.37;;;7.10;;
16075;SDS011;8142;48.242;11.644;2023-09-30T14:09:43;15.07;;;7.07;;
16075;SDS011;8142;48.242;11.644;2023-09-30T14:12:09;15.57;;;6.97;;
16075;SDS011;8142;48.242;11.644;2023-09-30T14:14:35;15.13;;;7.03;;
16075;SDS011;8142;48.242;11.644;2023-09-30T14:17:01;14.90;;;6.97;;
16075;SDS011;8142;48.242;11.644;2023-09-30T14:19:35;15.57;;;7.10;;
16075;SDS011;8142;48.242;11.644;2023-09-30T14:22:04;13.57;;;7.00;;
16075;SDS011;8142;48.242;11.644;2023-09-30T14:24:31;14.80;;;6.60;;
16075;SDS011;8142;48.242;11.644;2023-09-30T14:26:58;13.37;;;6.77;;
16075;SDS011;8142;48.242;11.644;2023-09-30T14:29:24;15.90;;;7.00;;
16075;SDS011;8142;48.242;11.644;2023-09-30T14:31:50;12.77;;;6.40;;
16075;SDS011;8142;48.242;11.644;2023-09-30T14:34:17;16.50;;;7.57;;
16075;SDS011;8142;48.242;11.644;2023-09-30T14:36:43;17.13;;;8.63;;
16075;SDS011;8142;48.242;11.644;2023-09-30T14:39:10;16.10;;;7.80;;
16075;SDS011;8142;48.242;11.644;2023-09-30T14:41:36;13.77;;;7.13;;
16075;SDS011;8142;48.242;11.644;2023-09-30T14:44:02;13.40;;;6.73;;
16075;SDS011;8142;48.242;11.644;2023-09-30T14:46:35;15.30;;;7.30;;
16075;SDS011;8142;48.242;11.644;2023-09-30T14:49:03;13.17;;;6.43;;
16075;SDS011;8142;48.242;11.644;2023-09-30T14:51:29;12.73;;;6.73;;